Timberlake, Virginia
Current Conditions -  °F | °C
As of 1:54 AM on Thursday 25 Dec 2014 (Local Time) from KLYH Reporting Station
Overcast Overcast  
Wind Chill: 50°   Ceiling: 9000
Heat Index: 50°   Visibility: 10mi
Dew Point: 48°   Wind: 3mph
Humidity: 93%   Direction: 200°SSW
Pressure: 29.66"   Gusts: NA
Location:  37.32°N, 79.26°W
Report Text: KLYH 250654Z AUTO 20003KT 10SM SCT075 OVC090 10/09 A2966 RMK AO2 SLP044 T01000089
Loading
Personal Weather Stations






























Interactive Weather Map New forecast layout! Learn more

10-Day Weather Forecast

Advertisements
Track Severe Weather on mobile